LIBD Airport Information

Runway Information
Runway 07 Length 8005 ft width 148 ft
Elevation 177 ft Threshold 0 ft Heading 69
Runway 25 Length 8005 ft Width 148 ft
Elevation 108 ft Threshold 0 ft Heading 249
Runway 12 Length 5512 ft width 164 ft
Elevation 108 ft Threshold 0 ft Heading 123
Runway 30 Length 5512 ft Width 164 ft
Elevation 108 ft Threshold 0 ft Heading 303
Airport Frequencies
Type APP Name APP Frequency 119.5 MHZ
Type TWR Name TWR Frequency 118.3 MHZ
Airport Navaids
Type VOR-DME Name Bari Frequency 116400 KHZ
Airport Weather Information & NOTAM
ADDS - METARS form results

(1038 UTC 17 October 2021)
Data provider http://aviationweather.gov/metar/data/
 
METAR text: LIBD 171020Z 30005KT 270V340 9999 FEW020 18/10 Q1019
Conditions at: LIBD (BARI/PALESE MACC, IT) observed 1020 UTC 17 October 2021
Temperature: 18.0°C (64°F)
Dewpoint: 10.0°C (50°F) [RH = 59%]
Pressure (altimeter): 30.09 inches Hg (1019.0 mb)
Winds: from the WNW (300 degrees) at 6 MPH (5 knots; 2.6 m/s)
Visibility: 6 or more miles (10+ km)
Ceiling: at least 12,000 feet AGL
Clouds: few clouds at 2000 feet AGL
Weather: no significant weather observed at this time

METAR text: LIBD 170950Z 29004KT 250V330 CAVOK 18/10 Q1019
Conditions at: LIBD (BARI/PALESE MACC, IT) observed 0950 UTC 17 October 2021
Temperature: 18.0°C (64°F)
Dewpoint: 10.0°C (50°F) [RH = 59%]
Pressure (altimeter): 30.09 inches Hg (1019.0 mb)
Winds: from the WNW (290 degrees) at 5 MPH (4 knots; 2.1 m/s)
Visibility: 6 or more miles (10+ km)
Ceiling: ceiling and visibility are OK
Clouds: unknown
Weather: no significant weather observed at this time

Forecast for: LIBD (BARI/PALESE MACC, IT)
Text: TAF LIBD 170500Z 1706/1806 26007KT 9999 SCT040
Forecast period: 0600 to 0900 UTC 17 October 2021
Forecast type: FROM: standard forecast or significant change
Winds: from the W (260 degrees) at 8 MPH (7 knots; 3.6 m/s)
Visibility: 6 or more miles (10+ km)
Ceiling: at least 12,000 feet AGL
Clouds: scattered clouds at 4000 feet AGL
Weather: no significant weather forecast for this period
Text: BECMG 1709/1711 35012KT
Forecast period: 0900 to 1500 UTC 17 October 2021
Forecast type: BECOMING: Conditions expected to become as follows by 1100 UTC 17 October 2021
Winds: from the N (350 degrees) at 14 MPH (12 knots; 6.2 m/s)
Visibility: 6 or more miles (10+ km)
Ceiling: at least 12,000 feet AGL
Clouds: scattered clouds at 4000 feet AGL
Weather: no significant weather forecast for this period
Text: BECMG 1715/1717 VRB05KT
Forecast period: 1500 UTC 17 October 2021 to 0600 UTC 18 October 2021
Forecast type: BECOMING: Conditions expected to become as follows by 1700 UTC 17 October 2021
Winds: variable direction winds at 6 MPH (5 knots; 2.6 m/s)
Visibility: 6 or more miles (10+ km)
Ceiling: at least 12,000 feet AGL
Clouds: scattered clouds at 4000 feet AGL
Weather: no significant weather forecast for this period